TAF and METAR

METAR for Brest Airport

UMBB 230300Z 01003MPS 9000 NSC M06/M11 Q1042 NOSIG
Report created 23. feb 04:00
wind 6 knots from N (010°) visibility 9000 meters No significant clouds. Temperature -6° with dewpoint at -11° (Humidity 67.65%) Pressure 1042 hPa no significant weather change expected the next couple of hours

TAF for Brest Airport

TAF UMBB 230205Z 2303/2312 36005MPS 6000 SCT015 TEMPO 2303/2306 3000 BR
Report created 23. feb 03:05

between 23. feb 04:00 - 23. feb 13:00

wind 10 knots from N (360°) visibility 6000 meters scattered clouds (~50% cover) at 1500 feet

temporarily between 23. feb 04:00 - 23. feb 07:00

visibility 3000 meters mist
Brest Airport in Belarus at 143m

Latest 5 airports